Oak Lake, Canada
Current Conditions -  °F | °C
As of 6:00 PM on Sunday 25 Jan 2015 (Local Time) from CYBR Reporting Station
Haze Haze  
Wind Chill: 19°   Ceiling: 500
Heat Index: 25°   Visibility: 5mi
Dew Point: 23°   Wind: 5mph
Humidity: 93%   Direction: NA
Pressure: 29.78"   Gusts: NA
Location:  49.77°N, 100.63°W
Report Text: CYBR 260000Z VRB04KT 5SM BR BKN005 OVC012 M04/M05 A2978 RMK ST5ST3 PRESRR SLP115
Loading
Personal Weather Stations






























Interactive Weather Map New forecast layout! Learn more

10-Day Weather Forecast

Advertisements
Track Severe Weather on mobile